sensor_id;sensor_type;location;lat;lon;timestamp;pressure;altitude;pressure_sealevel;temperature
20867;BMP280;10593;48.398;10.698;2023-02-11T00:00:41;98095.75;;;5.76
20867;BMP280;10593;48.398;10.698;2023-02-11T00:03:07;98086.38;;;5.75
20867;BMP280;10593;48.398;10.698;2023-02-11T00:05:33;98091.44;;;5.73
20867;BMP280;10593;48.398;10.698;2023-02-11T00:07:59;98085.41;;;5.71
20867;BMP280;10593;48.398;10.698;2023-02-11T00:10:25;98088.81;;;5.72
20867;BMP280;10593;48.398;10.698;2023-02-11T00:12:50;98084.50;;;5.69
20867;BMP280;10593;48.398;10.698;2023-02-11T00:15:16;98083.63;;;5.69
20867;BMP280;10593;48.398;10.698;2023-02-11T00:17:41;98084.47;;;5.68
20867;BMP280;10593;48.398;10.698;2023-02-11T00:20:08;98083.56;;;5.66
20867;BMP280;10593;48.398;10.698;2023-02-11T00:22:33;98079.31;;;5.66
20867;BMP280;10593;48.398;10.698;2023-02-11T00:24:59;98086.09;;;5.66
20867;BMP280;10593;48.398;10.698;2023-02-11T00:27:25;98081.81;;;5.65
20867;BMP280;10593;48.398;10.698;2023-02-11T00:29:50;98083.50;;;5.64
20867;BMP280;10593;48.398;10.698;2023-02-11T00:32:16;98082.63;;;5.64
20867;BMP280;10593;48.398;10.698;2023-02-11T00:34:42;98074.06;;;5.62
20867;BMP280;10593;48.398;10.698;2023-02-11T00:37:07;98074.94;;;5.62
20867;BMP280;10593;48.398;10.698;2023-02-11T00:39:33;98075.75;;;5.61
20867;BMP280;10593;48.398;10.698;2023-02-11T00:41:59;98077.44;;;5.61
20867;BMP280;10593;48.398;10.698;2023-02-11T00:44:25;98079.94;;;5.59
20867;BMP280;10593;48.398;10.698;2023-02-11T00:46:50;98079.06;;;5.59
20867;BMP280;10593;48.398;10.698;2023-02-11T00:49:16;98085.00;;;5.58
20867;BMP280;10593;48.398;10.698;2023-02-11T00:51:42;98080.72;;;5.57
20867;BMP280;10593;48.398;10.698;2023-02-11T00:54:07;98081.53;;;5.56
20867;BMP280;10593;48.398;10.698;2023-02-11T00:56:33;98087.44;;;5.55
20867;BMP280;10593;48.398;10.698;2023-02-11T00:58:59;98089.13;;;5.54
20867;BMP280;10593;48.398;10.698;2023-02-11T01:01:25;98092.50;;;5.53
20867;BMP280;10593;48.398;10.698;2023-02-11T01:03:51;98081.44;;;5.53
20867;BMP280;10593;48.398;10.698;2023-02-11T01:06:17;98085.59;;;5.51
20867;BMP280;10593;48.398;10.698;2023-02-11T01:08:43;98095.00;;;5.52
20867;BMP280;10593;48.398;10.698;2023-02-11T01:11:19;98093.22;;;5.49
20867;BMP280;10593;48.398;10.698;2023-02-11T01:13:46;98084.66;;;5.47
20867;BMP280;10593;48.398;10.698;2023-02-11T01:16:12;98085.50;;;5.46
20867;BMP280;10593;48.398;10.698;2023-02-11T01:18:39;98087.09;;;5.44
20867;BMP280;10593;48.398;10.698;2023-02-11T01:21:06;98082.88;;;5.45
20867;BMP280;10593;48.398;10.698;2023-02-11T01:23:32;98087.91;;;5.43
20867;BMP280;10593;48.398;10.698;2023-02-11T01:25:58;98083.63;;;5.42
20867;BMP280;10593;48.398;10.698;2023-02-11T01:28:27;98081.91;;;5.41
20867;BMP280;10593;48.398;10.698;2023-02-11T01:30:53;98087.81;;;5.40
20867;BMP280;10593;48.398;10.698;2023-02-11T01:33:21;98097.16;;;5.40
20867;BMP280;10593;48.398;10.698;2023-02-11T01:35:47;98097.13;;;5.38
20867;BMP280;10593;48.398;10.698;2023-02-11T01:38:17;98088.63;;;5.38
20867;BMP280;10593;48.398;10.698;2023-02-11T01:43:18;98078.28;;;5.35
20867;BMP280;10593;48.398;10.698;2023-02-11T01:48:18;98085.91;;;5.33
20867;BMP280;10593;48.398;10.698;2023-02-11T01:50:50;98070.56;;;5.32
20867;BMP280;10593;48.398;10.698;2023-02-11T01:53:18;98066.28;;;5.31
20867;BMP280;10593;48.398;10.698;2023-02-11T01:56:04;98064.56;;;5.30
20867;BMP280;10593;48.398;10.698;2023-02-11T01:58:52;98055.94;;;5.26
20867;BMP280;10593;48.398;10.698;2023-02-11T02:01:24;98046.56;;;5.25
20867;BMP280;10593;48.398;10.698;2023-02-11T02:03:56;98050.81;;;5.25
20867;BMP280;10593;48.398;10.698;2023-02-11T02:06:36;98046.50;;;5.24
20867;BMP280;10593;48.398;10.698;2023-02-11T02:09:21;98051.56;;;5.22
20867;BMP280;10593;48.398;10.698;2023-02-11T02:11:47;98038.78;;;5.21
20867;BMP280;10593;48.398;10.698;2023-02-11T02:14:13;98034.50;;;5.20
20867;BMP280;10593;48.398;10.698;2023-02-11T02:16:39;98024.31;;;5.20
20867;BMP280;10593;48.398;10.698;2023-02-11T02:22:40;98016.56;;;5.17
20867;BMP280;10593;48.398;10.698;2023-02-11T02:28:30;98011.31;;;5.11
20867;BMP280;10593;48.398;10.698;2023-02-11T02:34:12;97988.16;;;5.05
20867;BMP280;10593;48.398;10.698;2023-02-11T02:37:08;97982.22;;;5.04
20867;BMP280;10593;48.398;10.698;2023-02-11T02:39:36;97983.94;;;5.05
20867;BMP280;10593;48.398;10.698;2023-02-11T02:42:03;97977.16;;;5.06
20867;BMP280;10593;48.398;10.698;2023-02-11T02:44:30;97971.22;;;5.05
20867;BMP280;10593;48.398;10.698;2023-02-11T02:46:56;97977.97;;;5.05
20867;BMP280;10593;48.398;10.698;2023-02-11T02:49:22;97981.41;;;5.05
20867;BMP280;10593;48.398;10.698;2023-02-11T03:03:57;97984.50;;;4.97
20867;BMP280;10593;48.398;10.698;2023-02-11T03:06:34;97993.09;;;4.99
20867;BMP280;10593;48.398;10.698;2023-02-11T03:09:25;97994.81;;;5.00
20867;BMP280;10593;48.398;10.698;2023-02-11T03:11:52;97991.34;;;4.98
20867;BMP280;10593;48.398;10.698;2023-02-11T03:14:19;97990.53;;;4.99
20867;BMP280;10593;48.398;10.698;2023-02-11T03:16:49;97993.09;;;4.99
20867;BMP280;10593;48.398;10.698;2023-02-11T03:19:29;97993.09;;;4.99
20867;BMP280;10593;48.398;10.698;2023-02-11T03:21:56;97987.09;;;4.98
20867;BMP280;10593;48.398;10.698;2023-02-11T03:24:29;97984.56;;;4.98
20867;BMP280;10593;48.398;10.698;2023-02-11T03:27:18;97988.81;;;4.98
20867;BMP280;10593;48.398;10.698;2023-02-11T03:30:15;97979.38;;;4.95
20867;BMP280;10593;48.398;10.698;2023-02-11T03:32:56;97984.47;;;4.95
20867;BMP280;10593;48.398;10.698;2023-02-11T03:35:32;97977.59;;;4.93
20867;BMP280;10593;48.398;10.698;2023-02-11T03:38:06;97983.50;;;4.92
20867;BMP280;10593;48.398;10.698;2023-02-11T03:40:39;97977.59;;;4.93
20867;BMP280;10593;48.398;10.698;2023-02-11T03:43:19;97987.69;;;4.90
20867;BMP280;10593;48.398;10.698;2023-02-11T03:45:50;97991.06;;;4.90
20867;BMP280;10593;48.398;10.698;2023-02-11T03:48:35;97988.53;;;4.90
20867;BMP280;10593;48.398;10.698;2023-02-11T03:51:05;97984.25;;;4.89
20867;BMP280;10593;48.398;10.698;2023-02-11T03:53:32;97987.63;;;4.88
20867;BMP280;10593;48.398;10.698;2023-02-11T03:56:04;97981.69;;;4.88
20867;BMP280;10593;48.398;10.698;2023-02-11T03:58:31;97986.78;;;4.88
20867;BMP280;10593;48.398;10.698;2023-02-11T04:00:56;97992.72;;;4.88
20867;BMP280;10593;48.398;10.698;2023-02-11T04:03:22;97995.22;;;4.87
20867;BMP280;10593;48.398;10.698;2023-02-11T04:05:48;98007.97;;;4.87
20867;BMP280;10593;48.398;10.698;2023-02-11T04:08:13;98003.69;;;4.86
20867;BMP280;10593;48.398;10.698;2023-02-11T04:10:39;98006.25;;;4.86
20867;BMP280;10593;48.398;10.698;2023-02-11T04:13:05;98010.53;;;4.87
20867;BMP280;10593;48.398;10.698;2023-02-11T04:15:31;98013.88;;;4.86
20867;BMP280;10593;48.398;10.698;2023-02-11T04:17:57;98018.09;;;4.85
20867;BMP280;10593;48.398;10.698;2023-02-11T04:20:22;98022.34;;;4.85
20867;BMP280;10593;48.398;10.698;2023-02-11T04:22:48;98029.16;;;4.86
20867;BMP280;10593;48.398;10.698;2023-02-11T04:25:14;98027.44;;;4.85
20867;BMP280;10593;48.398;10.698;2023-02-11T04:27:39;98028.22;;;4.84
20867;BMP280;10593;48.398;10.698;2023-02-11T04:30:07;98033.31;;;4.84
20867;BMP280;10593;48.398;10.698;2023-02-11T04:32:33;98031.59;;;4.83
20867;BMP280;10593;48.398;10.698;2023-02-11T04:34:58;98038.38;;;4.82
20867;BMP280;10593;48.398;10.698;2023-02-11T04:37:24;98037.50;;;4.82
20867;BMP280;10593;48.398;10.698;2023-02-11T04:39:49;98043.47;;;4.82
20867;BMP280;10593;48.398;10.698;2023-02-11T04:42:15;98035.75;;;4.81
20867;BMP280;10593;48.398;10.698;2023-02-11T04:44:41;98036.66;;;4.81
20867;BMP280;10593;48.398;10.698;2023-02-11T04:47:06;98029.00;;;4.81
20867;BMP280;10593;48.398;10.698;2023-02-11T04:49:32;98018.75;;;4.80
20867;BMP280;10593;48.398;10.698;2023-02-11T04:51:57;98018.75;;;4.80
20867;BMP280;10593;48.398;10.698;2023-02-11T04:54:23;98020.47;;;4.81
20867;BMP280;10593;48.398;10.698;2023-02-11T04:56:49;98015.38;;;4.79
20867;BMP280;10593;48.398;10.698;2023-02-11T04:59:15;98019.56;;;4.79
20867;BMP280;10593;48.398;10.698;2023-02-11T05:01:41;98019.56;;;4.79
20867;BMP280;10593;48.398;10.698;2023-02-11T05:04:07;98025.47;;;4.78
20867;BMP280;10593;48.398;10.698;2023-02-11T05:06:33;98013.63;;;4.78
20867;BMP280;10593;48.398;10.698;2023-02-11T05:08:58;98012.75;;;4.78
20867;BMP280;10593;48.398;10.698;2023-02-11T05:11:25;98014.44;;;4.77
20867;BMP280;10593;48.398;10.698;2023-02-11T05:13:51;98015.31;;;4.78
20867;BMP280;10593;48.398;10.698;2023-02-11T05:16:17;98020.34;;;4.76
20867;BMP280;10593;48.398;10.698;2023-02-11T05:18:44;98016.13;;;4.77
20867;BMP280;10593;48.398;10.698;2023-02-11T05:21:13;98019.53;;;4.77
20867;BMP280;10593;48.398;10.698;2023-02-11T05:23:41;98013.56;;;4.77
20867;BMP280;10593;48.398;10.698;2023-02-11T05:26:07;98006.75;;;4.76
20867;BMP280;10593;48.398;10.698;2023-02-11T05:28:33;98007.59;;;4.76
20867;BMP280;10593;48.398;10.698;2023-02-11T05:31:00;98004.25;;;4.77
20867;BMP280;10593;48.398;10.698;2023-02-11T05:33:27;97998.28;;;4.77
20867;BMP280;10593;48.398;10.698;2023-02-11T05:35:59;98003.38;;;4.77
20867;BMP280;10593;48.398;10.698;2023-02-11T05:38:25;97995.75;;;4.77
20867;BMP280;10593;48.398;10.698;2023-02-11T05:40:51;97995.75;;;4.77
20867;BMP280;10593;48.398;10.698;2023-02-11T05:43:16;98003.44;;;4.78
20867;BMP280;10593;48.398;10.698;2023-02-11T05:45:42;97989.84;;;4.78
20867;BMP280;10593;48.398;10.698;2023-02-11T05:48:07;97982.19;;;4.78
20867;BMP280;10593;48.398;10.698;2023-02-11T05:50:33;97976.19;;;4.76
20867;BMP280;10593;48.398;10.698;2023-02-11T05:52:59;97977.97;;;4.78
20867;BMP280;10593;48.398;10.698;2023-02-11T05:55:24;97976.25;;;4.77
20867;BMP280;10593;48.398;10.698;2023-02-11T05:57:50;97966.91;;;4.78
20867;BMP280;10593;48.398;10.698;2023-02-11T06:00:16;97958.44;;;4.77
20867;BMP280;10593;48.398;10.698;2023-02-11T06:02:42;97960.97;;;4.77
20867;BMP280;10593;48.398;10.698;2023-02-11T06:05:08;97973.72;;;4.77
20867;BMP280;10593;48.398;10.698;2023-02-11T06:07:34;97989.00;;;4.77
20867;BMP280;10593;48.398;10.698;2023-02-11T06:09:59;97989.84;;;4.78
20867;BMP280;10593;48.398;10.698;2023-02-11T06:12:25;97994.94;;;4.78
20867;BMP280;10593;48.398;10.698;2023-02-11T06:14:51;97992.38;;;4.78
20867;BMP280;10593;48.398;10.698;2023-02-11T06:17:17;97998.34;;;4.78
20867;BMP280;10593;48.398;10.698;2023-02-11T06:19:43;97986.44;;;4.77
20867;BMP280;10593;48.398;10.698;2023-02-11T06:22:09;97975.44;;;4.78
20867;BMP280;10593;48.398;10.698;2023-02-11T06:24:35;97977.16;;;4.79
20867;BMP280;10593;48.398;10.698;2023-02-11T06:27:03;97969.53;;;4.79
20867;BMP280;10593;48.398;10.698;2023-02-11T06:29:29;97967.81;;;4.80
20867;BMP280;10593;48.398;10.698;2023-02-11T06:31:55;97966.09;;;4.79
20867;BMP280;10593;48.398;10.698;2023-02-11T06:34:21;97955.91;;;4.79
20867;BMP280;10593;48.398;10.698;2023-02-11T06:36:46;97969.56;;;4.81
20867;BMP280;10593;48.398;10.698;2023-02-11T06:39:12;97977.19;;;4.81
20867;BMP280;10593;48.398;10.698;2023-02-11T06:41:38;97985.72;;;4.81
20867;BMP280;10593;48.398;10.698;2023-02-11T06:44:04;97986.56;;;4.82
20867;BMP280;10593;48.398;10.698;2023-02-11T06:46:30;97981.47;;;4.82
20867;BMP280;10593;48.398;10.698;2023-02-11T06:48:56;97986.56;;;4.82
20867;BMP280;10593;48.398;10.698;2023-02-11T06:51:21;97984.94;;;4.84
20867;BMP280;10593;48.398;10.698;2023-02-11T06:53:47;97973.91;;;4.83
20867;BMP280;10593;48.398;10.698;2023-02-11T06:56:17;97965.38;;;4.83
20867;BMP280;10593;48.398;10.698;2023-02-11T06:58:43;97981.59;;;4.85
20867;BMP280;10593;48.398;10.698;2023-02-11T07:01:14;97989.22;;;4.85
20867;BMP280;10593;48.398;10.698;2023-02-11T07:03:42;97977.34;;;4.85
20867;BMP280;10593;48.398;10.698;2023-02-11T07:06:13;97983.31;;;4.86
20867;BMP280;10593;48.398;10.698;2023-02-11T07:08:40;97990.97;;;4.86
20867;BMP280;10593;48.398;10.698;2023-02-11T07:11:19;97991.00;;;4.87
20867;BMP280;10593;48.398;10.698;2023-02-11T07:13:49;97994.41;;;4.88
20867;BMP280;10593;48.398;10.698;2023-02-11T07:16:17;97990.16;;;4.88
20867;BMP280;10593;48.398;10.698;2023-02-11T07:18:45;97990.22;;;4.90
20867;BMP280;10593;48.398;10.698;2023-02-11T07:21:14;97992.78;;;4.90
20867;BMP280;10593;48.398;10.698;2023-02-11T07:23:41;97992.03;;;4.92
20867;BMP280;10593;48.398;10.698;2023-02-11T07:26:09;97991.19;;;4.93
20867;BMP280;10593;48.398;10.698;2023-02-11T07:28:37;97994.59;;;4.94
20867;BMP280;10593;48.398;10.698;2023-02-11T07:31:12;97998.88;;;4.95
20867;BMP280;10593;48.398;10.698;2023-02-11T07:33:39;97996.38;;;4.96
20867;BMP280;10593;48.398;10.698;2023-02-11T07:36:06;97995.56;;;4.97
20867;BMP280;10593;48.398;10.698;2023-02-11T07:38:33;97997.28;;;4.98
20867;BMP280;10593;48.398;10.698;2023-02-11T07:41:05;97993.09;;;5.00
20867;BMP280;10593;48.398;10.698;2023-02-11T07:43:32;97987.25;;;5.03
20867;BMP280;10593;48.398;10.698;2023-02-11T07:46:01;97988.09;;;5.03
20867;BMP280;10593;48.398;10.698;2023-02-11T07:48:27;97986.44;;;5.04
20867;BMP280;10593;48.398;10.698;2023-02-11T07:50:53;97983.88;;;5.04
20867;BMP280;10593;48.398;10.698;2023-02-11T07:53:18;97978.88;;;5.07
20867;BMP280;10593;48.398;10.698;2023-02-11T07:55:44;97962.78;;;5.08
20867;BMP280;10593;48.398;10.698;2023-02-11T07:58:10;97970.47;;;5.09
20867;BMP280;10593;48.398;10.698;2023-02-11T08:00:35;97961.13;;;5.10
20867;BMP280;10593;48.398;10.698;2023-02-11T08:03:01;97969.72;;;5.12
20867;BMP280;10593;48.398;10.698;2023-02-11T08:05:28;97953.63;;;5.14
20867;BMP280;10593;48.398;10.698;2023-02-11T08:07:54;97952.88;;;5.17
20867;BMP280;10593;48.398;10.698;2023-02-11T08:10:21;97956.34;;;5.19
20867;BMP280;10593;48.398;10.698;2023-02-11T08:12:47;97955.56;;;5.21
20867;BMP280;10593;48.398;10.698;2023-02-11T08:15:12;97963.25;;;5.23
20867;BMP280;10593;48.398;10.698;2023-02-11T08:17:38;97971.81;;;5.25
20867;BMP280;10593;48.398;10.698;2023-02-11T08:20:05;97966.72;;;5.25
20867;BMP280;10593;48.398;10.698;2023-02-11T08:22:32;97971.94;;;5.29
20867;BMP280;10593;48.398;10.698;2023-02-11T08:24:58;97969.44;;;5.31
20867;BMP280;10593;48.398;10.698;2023-02-11T08:27:24;97962.72;;;5.33
20867;BMP280;10593;48.398;10.698;2023-02-11T08:29:52;97964.50;;;5.35
20867;BMP280;10593;48.398;10.698;2023-02-11T08:32:18;97967.13;;;5.38
20867;BMP280;10593;48.398;10.698;2023-02-11T08:34:43;97964.63;;;5.40
20867;BMP280;10593;48.398;10.698;2023-02-11T08:37:09;97969.75;;;5.41
20867;BMP280;10593;48.398;10.698;2023-02-11T08:39:34;97974.94;;;5.44
20867;BMP280;10593;48.398;10.698;2023-02-11T08:42:00;97982.69;;;5.47
20867;BMP280;10593;48.398;10.698;2023-02-11T08:44:26;97981.06;;;5.49
20867;BMP280;10593;48.398;10.698;2023-02-11T08:46:52;97989.66;;;5.53
20867;BMP280;10593;48.398;10.698;2023-02-11T08:49:18;97993.13;;;5.55
20867;BMP280;10593;48.398;10.698;2023-02-11T08:51:45;98011.94;;;5.58
20867;BMP280;10593;48.398;10.698;2023-02-11T08:54:11;98004.38;;;5.61
20867;BMP280;10593;48.398;10.698;2023-02-11T08:56:38;98009.53;;;5.64
20867;BMP280;10593;48.398;10.698;2023-02-11T08:59:04;98004.50;;;5.66
20867;BMP280;10593;48.398;10.698;2023-02-11T09:01:31;98002.88;;;5.69
20867;BMP280;10593;48.398;10.698;2023-02-11T09:03:58;97986.81;;;5.72
20867;BMP280;10593;48.398;10.698;2023-02-11T09:06:25;97984.34;;;5.75
20867;BMP280;10593;48.398;10.698;2023-02-11T09:08:54;97960.56;;;5.76
20867;BMP280;10593;48.398;10.698;2023-02-11T09:11:26;97977.75;;;5.80
20867;BMP280;10593;48.398;10.698;2023-02-11T09:13:52;97971.00;;;5.82
20867;BMP280;10593;48.398;10.698;2023-02-11T09:16:23;97948.94;;;5.84
20867;BMP280;10593;48.398;10.698;2023-02-11T09:18:50;97954.94;;;5.86
20867;BMP280;10593;48.398;10.698;2023-02-11T09:21:18;97944.81;;;5.89
20867;BMP280;10593;48.398;10.698;2023-02-11T09:23:44;97952.59;;;5.92
20867;BMP280;10593;48.398;10.698;2023-02-11T09:26:17;97952.66;;;5.95
20867;BMP280;10593;48.398;10.698;2023-02-11T09:28:43;97952.78;;;5.99
20867;BMP280;10593;48.398;10.698;2023-02-11T09:31:13;97975.00;;;6.03
20867;BMP280;10593;48.398;10.698;2023-02-11T09:33:44;97981.09;;;6.08
20867;BMP280;10593;48.398;10.698;2023-02-11T09:36:19;97968.38;;;6.10
20867;BMP280;10593;48.398;10.698;2023-02-11T09:38:46;97972.78;;;6.15
20867;BMP280;10593;48.398;10.698;2023-02-11T09:41:46;97974.59;;;6.19
20867;BMP280;10593;48.398;10.698;2023-02-11T09:44:29;97969.59;;;6.23
20867;BMP280;10593;48.398;10.698;2023-02-11T09:49:48;97961.31;;;6.32
20867;BMP280;10593;48.398;10.698;2023-02-11T09:52:39;97959.78;;;6.38
20867;BMP280;10593;48.398;10.698;2023-02-11T09:55:32;97937.75;;;6.42
20867;BMP280;10593;48.398;10.698;2023-02-11T09:58:09;97939.63;;;6.47
20867;BMP280;10593;48.398;10.698;2023-02-11T10:00:53;97937.19;;;6.53
20867;BMP280;10593;48.398;10.698;2023-02-11T10:03:55;97929.69;;;6.59
20867;BMP280;10593;48.398;10.698;2023-02-11T10:06:42;97937.44;;;6.62
20867;BMP280;10593;48.398;10.698;2023-02-11T10:15:14;97930.09;;;6.76
20867;BMP280;10593;48.398;10.698;2023-02-11T10:21:14;97938.75;;;6.82
20867;BMP280;10593;48.398;10.698;2023-02-11T10:23:50;97946.50;;;6.85
20867;BMP280;10593;48.398;10.698;2023-02-11T10:26:18;97946.59;;;6.88
20867;BMP280;10593;48.398;10.698;2023-02-11T10:28:51;97944.94;;;6.92
20867;BMP280;10593;48.398;10.698;2023-02-11T10:31:25;97943.34;;;6.95
20867;BMP280;10593;48.398;10.698;2023-02-11T10:34:24;97934.84;;;6.96
20867;BMP280;10593;48.398;10.698;2023-02-11T10:36:50;97938.34;;;7.00
20867;BMP280;10593;48.398;10.698;2023-02-11T10:39:17;97940.09;;;7.02
20867;BMP280;10593;48.398;10.698;2023-02-11T10:41:51;97932.50;;;7.05
20867;BMP280;10593;48.398;10.698;2023-02-11T10:44:39;97925.72;;;7.07
20867;BMP280;10593;48.398;10.698;2023-02-11T10:47:21;97923.22;;;7.10
20867;BMP280;10593;48.398;10.698;2023-02-11T10:49:48;97921.56;;;7.12
20867;BMP280;10593;48.398;10.698;2023-02-11T10:52:20;97914.81;;;7.14
20867;BMP280;10593;48.398;10.698;2023-02-11T10:55:00;97916.56;;;7.17
20867;BMP280;10593;48.398;10.698;2023-02-11T10:57:35;97914.09;;;7.20
20867;BMP280;10593;48.398;10.698;2023-02-11T11:00:22;97909.84;;;7.20
20867;BMP280;10593;48.398;10.698;2023-02-11T11:02:57;97909.03;;;7.23
20867;BMP280;10593;48.398;10.698;2023-02-11T11:05:32;97906.53;;;7.26
20867;BMP280;10593;48.398;10.698;2023-02-11T11:08:05;97907.50;;;7.29
20867;BMP280;10593;48.398;10.698;2023-02-11T11:10:59;97899.88;;;7.32
20867;BMP280;10593;48.398;10.698;2023-02-11T11:13:39;97897.34;;;7.34
20867;BMP280;10593;48.398;10.698;2023-02-11T11:18:39;97885.53;;;7.39
20867;BMP280;10593;48.398;10.698;2023-02-11T11:21:20;97884.75;;;7.43
20867;BMP280;10593;48.398;10.698;2023-02-11T11:23:54;97895.03;;;7.44
20867;BMP280;10593;48.398;10.698;2023-02-11T11:26:22;97900.19;;;7.47
20867;BMP280;10593;48.398;10.698;2023-02-11T11:28:55;97897.72;;;7.52
20867;BMP280;10593;48.398;10.698;2023-02-11T11:31:36;97904.56;;;7.53
20867;BMP280;10593;48.398;10.698;2023-02-11T11:34:29;97900.38;;;7.56
20867;BMP280;10593;48.398;10.698;2023-02-11T11:36:57;97901.31;;;7.60
20867;BMP280;10593;48.398;10.698;2023-02-11T11:39:33;97887.69;;;7.62
20867;BMP280;10593;48.398;10.698;2023-02-11T11:42:19;97899.72;;;7.65
20867;BMP280;10593;48.398;10.698;2023-02-11T11:45:21;97899.75;;;7.68
20867;BMP280;10593;48.398;10.698;2023-02-11T11:48:03;97884.44;;;7.69
20867;BMP280;10593;48.398;10.698;2023-02-11T11:50:49;97889.66;;;7.74
20867;BMP280;10593;48.398;10.698;2023-02-11T11:56:15;97892.28;;;7.78
20867;BMP280;10593;48.398;10.698;2023-02-11T11:58:43;97888.03;;;7.79
20867;BMP280;10593;48.398;10.698;2023-02-11T12:01:33;97889.88;;;7.84
20867;BMP280;10593;48.398;10.698;2023-02-11T12:04:24;97891.63;;;7.88
20867;BMP280;10593;48.398;10.698;2023-02-11T12:10:27;97876.38;;;7.93
20867;BMP280;10593;48.398;10.698;2023-02-11T12:21:32;97874.03;;;8.06
20867;BMP280;10593;48.398;10.698;2023-02-11T12:24:37;97870.72;;;8.10
20867;BMP280;10593;48.398;10.698;2023-02-11T12:32:48;97869.25;;;8.21
20867;BMP280;10593;48.398;10.698;2023-02-11T12:35:27;97870.16;;;8.24
20867;BMP280;10593;48.398;10.698;2023-02-11T12:43:44;97862.59;;;8.32
20867;BMP280;10593;48.398;10.698;2023-02-11T12:46:33;97849.03;;;8.36
20867;BMP280;10593;48.398;10.698;2023-02-11T12:49:46;97849.06;;;8.39
20867;BMP280;10593;48.398;10.698;2023-02-11T12:52:35;97851.66;;;8.42
20867;BMP280;10593;48.398;10.698;2023-02-11T12:55:29;97843.19;;;8.46
20867;BMP280;10593;48.398;10.698;2023-02-11T12:57:59;97837.25;;;8.48
20867;BMP280;10593;48.398;10.698;2023-02-11T13:03:23;97833.97;;;8.55
20867;BMP280;10593;48.398;10.698;2023-02-11T13:05:53;97827.16;;;8.59
20867;BMP280;10593;48.398;10.698;2023-02-11T13:08:37;97826.41;;;8.63
20867;BMP280;10593;48.398;10.698;2023-02-11T13:11:09;97831.56;;;8.66
20867;BMP280;10593;48.398;10.698;2023-02-11T13:14:00;97830.75;;;8.70
20867;BMP280;10593;48.398;10.698;2023-02-11T13:16:56;97827.34;;;8.71
20867;BMP280;10593;48.398;10.698;2023-02-11T13:22:23;97820.63;;;8.77
20867;BMP280;10593;48.398;10.698;2023-02-11T13:25:35;97822.38;;;8.80
20867;BMP280;10593;48.398;10.698;2023-02-11T13:28:26;97820.69;;;8.82
20867;BMP280;10593;48.398;10.698;2023-02-11T13:30:54;97823.28;;;8.83
20867;BMP280;10593;48.398;10.698;2023-02-11T13:33:40;97831.88;;;8.88
20867;BMP280;10593;48.398;10.698;2023-02-11T13:36:18;97825.97;;;8.92
20867;BMP280;10593;48.398;10.698;2023-02-11T13:39:01;97829.44;;;8.96
20867;BMP280;10593;48.398;10.698;2023-02-11T13:41:32;97827.78;;;8.99
20867;BMP280;10593;48.398;10.698;2023-02-11T13:46:55;97823.59;;;9.06
20867;BMP280;10593;48.398;10.698;2023-02-11T13:49:29;97830.47;;;9.10
20867;BMP280;10593;48.398;10.698;2023-02-11T13:51:56;97818.56;;;9.13
20867;BMP280;10593;48.398;10.698;2023-02-11T13:54:35;97814.34;;;9.17
20867;BMP280;10593;48.398;10.698;2023-02-11T13:57:26;97812.66;;;9.19
20867;BMP280;10593;48.398;10.698;2023-02-11T14:00:00;97812.69;;;9.22
20867;BMP280;10593;48.398;10.698;2023-02-11T14:02:35;97811.00;;;9.24
20867;BMP280;10593;48.398;10.698;2023-02-11T14:05:31;97809.34;;;9.27
20867;BMP280;10593;48.398;10.698;2023-02-11T14:08:24;97804.25;;;9.29
20867;BMP280;10593;48.398;10.698;2023-02-11T14:16:21;97793.19;;;9.36
20867;BMP280;10593;48.398;10.698;2023-02-11T14:21:30;97797.50;;;9.40
20867;BMP280;10593;48.398;10.698;2023-02-11T14:27:26;97799.28;;;9.44
20867;BMP280;10593;48.398;10.698;2023-02-11T14:30:25;97795.00;;;9.44
20867;BMP280;10593;48.398;10.698;2023-02-11T14:33:49;97795.00;;;9.44
20867;BMP280;10593;48.398;10.698;2023-02-11T14:42:09;97789.09;;;9.48
20867;BMP280;10593;48.398;10.698;2023-02-11T14:44:40;97798.50;;;9.51
20867;BMP280;10593;48.398;10.698;2023-02-11T14:47:06;97801.09;;;9.52
20867;BMP280;10593;48.398;10.698;2023-02-11T14:49:38;97800.28;;;9.56
20867;BMP280;10593;48.398;10.698;2023-02-11T14:52:27;97796.00;;;9.58
20867;BMP280;10593;48.398;10.698;2023-02-11T14:57:33;97796.88;;;9.60
20867;BMP280;10593;48.398;10.698;2023-02-11T15:00:20;97801.19;;;9.63
20867;BMP280;10593;48.398;10.698;2023-02-11T15:02:46;97800.34;;;9.64
20867;BMP280;10593;48.398;10.698;2023-02-11T15:05:26;97807.25;;;9.66
20867;BMP280;10593;48.398;10.698;2023-02-11T15:07:56;97814.09;;;9.67
20867;BMP280;10593;48.398;10.698;2023-02-11T15:10:32;97808.97;;;9.69
20867;BMP280;10593;48.398;10.698;2023-02-11T15:13:01;97808.13;;;9.70
20867;BMP280;10593;48.398;10.698;2023-02-11T15:15:28;97809.84;;;9.71
20867;BMP280;10593;48.398;10.698;2023-02-11T15:18:00;97807.28;;;9.72
20867;BMP280;10593;48.398;10.698;2023-02-11T15:20:30;97815.00;;;9.74
20867;BMP280;10593;48.398;10.698;2023-02-11T15:23:05;97818.44;;;9.76
20867;BMP280;10593;48.398;10.698;2023-02-11T15:25:32;97811.59;;;9.75
20867;BMP280;10593;48.398;10.698;2023-02-11T15:27:58;97816.75;;;9.76
20867;BMP280;10593;48.398;10.698;2023-02-11T15:30:31;97821.88;;;9.78
20867;BMP280;10593;48.398;10.698;2023-02-11T15:33:01;97824.47;;;9.76
20867;BMP280;10593;48.398;10.698;2023-02-11T15:35:38;97826.22;;;9.80
20867;BMP280;10593;48.398;10.698;2023-02-11T15:38:06;97823.63;;;9.79
20867;BMP280;10593;48.398;10.698;2023-02-11T15:40:35;97821.09;;;9.82
20867;BMP280;10593;48.398;10.698;2023-02-11T15:43:07;97833.94;;;9.82
20867;BMP280;10593;48.398;10.698;2023-02-11T15:45:44;97841.63;;;9.83
20867;BMP280;10593;48.398;10.698;2023-02-11T15:48:33;97841.63;;;9.83
20867;BMP280;10593;48.398;10.698;2023-02-11T15:51:11;97845.09;;;9.87
20867;BMP280;10593;48.398;10.698;2023-02-11T15:53:42;97839.94;;;9.85
20867;BMP280;10593;48.398;10.698;2023-02-11T15:56:38;97840.81;;;9.87
20867;BMP280;10593;48.398;10.698;2023-02-11T15:59:19;97844.25;;;9.88
20867;BMP280;10593;48.398;10.698;2023-02-11T16:01:51;97842.56;;;9.88
20867;BMP280;10593;48.398;10.698;2023-02-11T16:04:21;97846.84;;;9.91
20867;BMP280;10593;48.398;10.698;2023-02-11T16:06:49;97851.16;;;9.90
20867;BMP280;10593;48.398;10.698;2023-02-11T16:17:23;97837.44;;;9.93
20867;BMP280;10593;48.398;10.698;2023-02-11T16:19:52;97848.59;;;9.95